Latest Weather Observations for Troughton Island

IDD60801

Issued at 10:31 pm CST Sunday 29 May 2016 (issued every 30 minutes, with the page automatically refreshed every 10 minutes)

About weather observations | Map of weather stations | Latest weather observations for NT | Other Formats
Station Details ID: 001007 Name: TROUGHTON ISLAND Lat: -13.75 Lon: 126.15 Height: 6.0 m
Data from the previous 72 hours. | See also: Recent months at Troughton Island
Date/Time
CST
Temp
°C
App
Temp
°C
Dew
Point
Rel
Hum
%
Delta-T
°C
Wind Press
QNH
hPa
Press
MSL
hPa
Rain
since 9 am
mm
Dir
 
Spd
km/h
Gust
km/h
Spd
kts
Gust
kts
29/10:30pm 28.8 32.0 23.0 71 4.0 NNW 11 15 6 8 1013.1 1013.0 0.0
29/10:00pm 28.9 31.3 22.9 70 4.1 NNW 15 17 8 9 1013.0 1012.9 0.0
29/09:30pm 28.8 31.1 22.8 70 4.1 NNW 15 19 8 10 1012.8 1012.7 0.0
29/09:00pm 28.6 31.1 23.1 72 3.8 NNW 15 19 8 10 1012.8 1012.7 0.0
29/08:30pm 28.5 30.7 23.2 73 3.6 NNW 17 19 9 10 1012.8 1012.7 0.0
29/08:00pm 28.6 31.7 23.5 74 3.5 NW 13 17 7 9 1012.4 1012.3 0.0
29/07:30pm 28.9 31.3 23.6 73 3.6 NW 17 19 9 10 1012.3 1012.2 0.0
29/07:00pm 28.9 31.6 24.2 76 3.3 NW 17 19 9 10 1012.0 1011.9 0.0
29/06:30pm 29.3 32.2 24.4 75 3.4 NW 17 20 9 11 1011.6 1011.5 0.0
29/06:00pm 30.1 33.1 25.2 75 3.5 NW 19 22 10 12 1011.3 1011.2 0.0
29/05:30pm 30.7 33.7 24.6 70 4.3 NW 17 20 9 11 1010.9 1010.8 0.0
29/05:00pm 31.1 34.1 24.7 68 4.5 NW 17 19 9 10 1010.7 1010.6 0.0
29/04:30pm 31.1 34.5 24.7 68 4.5 NW 15 20 8 11 1010.6 1010.5 0.0
29/04:00pm 31.5 35.0 24.9 68 4.6 WNW 15 17 8 9 1010.7 1010.6 0.0
29/03:30pm 31.7 35.7 25.1 68 4.7 WNW 13 17 7 9 1010.7 1010.6 0.0
29/03:00pm 31.5 35.0 24.9 68 4.6 WNW 15 19 8 10 1011.0 1010.9 0.0
29/02:30pm 31.7 35.2 24.8 67 4.9 WNW 15 19 8 10 1011.3 1011.2 0.0
29/02:00pm 32.4 35.8 24.7 64 5.4 W 15 17 8 9 1011.7 1011.6 0.0
29/01:30pm 31.6 35.6 25.0 68 4.7 W 13 17 7 9 1012.1 1012.0 0.0
29/01:00pm 31.4 35.1 24.5 67 4.8 W 13 15 7 8 1012.6 1012.5 0.0
29/12:30pm 31.4 35.3 24.8 68 4.6 W 13 15 7 8 1013.0 1012.9 0.0
29/12:00pm 31.8 35.3 24.9 67 4.9 WSW 15 17 8 9 1013.4 1013.3 0.0
29/11:30am 31.4 34.3 24.5 67 4.8 WSW 17 20 9 11 1013.9 1013.8 0.0
29/11:00am 31.7 35.0 25.1 68 4.7 SW 17 22 9 12 1014.1 1014.0 0.0
29/10:30am 31.2 34.6 25.3 71 4.2 WSW 17 20 9 11 1014.2 1014.1 0.0
29/10:00am 30.5 33.2 24.2 69 4.4 WSW 17 20 9 11 1014.1 1014.0 0.0
29/09:30am 30.2 33.1 24.4 71 4.0 WSW 17 20 9 11 1014.0 1013.9 0.0
29/09:00am 29.5 32.9 24.1 72 3.7 WSW 13 17 7 9 1013.9 1013.8 0.0
29/08:30am 29.3 32.4 24.2 74 3.5 W 15 19 8 10 1013.6 1013.5 0.0
29/08:00am 28.7 32.4 24.5 78 2.9 W 13 15 7 8 1013.3 1013.2 0.0
29/07:30am 28.2 31.3 24.2 79 2.8 W 15 15 8 8 1012.8 1012.7 0.0
29/07:00am 28.3 31.5 24.3 79 2.8 W 15 19 8 10 1012.4 1012.3 0.0
29/06:30am 28.3 31.1 24.3 79 2.8 W 17 20 9 11 1012.0 1011.9 0.0
29/06:00am 28.3 31.6 24.5 80 2.6 W 15 19 8 10 1011.9 1011.8 0.0
29/05:30am 28.3 31.5 24.3 79 2.8 W 15 17 8 9 1011.6 1011.5 0.0
29/05:00am 28.3 31.4 24.1 78 2.9 W 15 19 8 10 1011.4 1011.3 0.0
29/04:30am 28.3 31.9 24.3 79 2.8 W 13 17 7 9 1011.3 1011.2 0.0
29/04:00am 28.2 31.8 24.4 80 2.6 WNW 13 19 7 10 1011.3 1011.2 0.0
29/03:30am 28.3 32.0 24.5 80 2.6 WNW 13 17 7 9 1011.4 1011.3 0.0
29/03:00am 28.3 31.5 24.3 79 2.8 W 15 17 8 9 1011.5 1011.4 0.0
29/02:30am 28.1 31.7 24.3 80 2.6 WNW 13 15 7 8 1011.4 1011.3 0.0
29/02:00am 28.1 31.8 24.5 81 2.5 WNW 13 17 7 9 1011.7 1011.6 0.0
29/01:30am 27.6 31.2 24.4 83 2.2 WNW 13 13 7 7 1011.9 1011.8 0.0
29/01:00am 27.8 31.5 24.6 83 2.2 WNW 13 15 7 8 1012.2 1012.1 0.0
29/12:30am 27.9 32.1 24.7 83 2.2 WNW 11 15 6 8 1012.4 1012.3 0.0
29/12:00am 28.1 32.0 24.9 83 2.2 WNW 13 17 7 9 1012.7 1012.6 0.0
 
Date/Time
CST
Temp
°C
App
Temp
°C
Dew
Point
Rel
Hum
%
Delta-T
°C
Wind Press
QNH
hPa
Press
MSL
hPa
Rain
since 9 am
mm
Dir
 
Spd
km/h
Gust
km/h
Spd
kts
Gust
kts
28/11:30pm 28.2 31.4 24.4 80 2.6 WNW 15 17 8 9 1012.6 1012.5 0.0
28/11:00pm 28.4 31.9 24.8 81 2.5 WNW 15 19 8 10 1012.7 1012.6 0.0
28/10:30pm 28.6 31.7 24.8 80 2.7 WNW 17 20 9 11 1012.7 1012.6 0.0
28/10:00pm 28.6 31.8 25.0 81 2.5 WNW 17 20 9 11 1012.6 1012.5 0.0
28/09:30pm 28.6 31.6 24.6 79 2.8 NW 17 20 9 11 1012.5 1012.4 0.0
28/09:00pm 28.8 32.0 25.0 80 2.7 WNW 17 20 9 11 1012.4 1012.3 0.0
28/08:30pm 28.9 32.3 25.3 81 2.5 WNW 17 19 9 10 1011.9 1011.8 0.0
28/08:00pm 29.0 32.1 24.8 78 2.9 WNW 17 20 9 11 1011.7 1011.6 0.0
28/07:30pm 29.2 32.4 25.0 78 2.9 WNW 17 20 9 11 1011.4 1011.3 0.0
28/07:00pm 29.3 32.4 24.8 77 3.1 WNW 17 19 9 10 1011.2 1011.1 0.0
28/06:30pm 29.7 32.8 24.8 75 3.4 WNW 17 20 9 11 1011.1 1011.0 0.0
28/06:00pm 30.4 33.5 24.8 72 3.9 W 17 20 9 11 1010.9 1010.8 0.0
28/05:30pm 31.0 34.2 24.9 70 4.3 W 17 20 9 11 1010.7 1010.6 0.0
28/05:00pm 31.2 33.9 24.8 69 4.5 W 19 22 10 12 1010.7 1010.6 0.0
28/04:30pm 31.7 34.9 25.5 69 4.4 W 19 20 10 11 1010.6 1010.5 0.0
28/04:00pm 31.6 35.3 25.7 71 4.2 W 17 19 9 10 1010.6 1010.5 0.0
28/03:30pm 32.1 35.6 24.9 65 5.1 W 15 19 8 10 1010.9 1010.8 0.0
28/03:00pm 31.7 35.2 24.8 67 4.9 W 15 19 8 10 1011.2 1011.1 0.0
28/02:30pm 32.1 35.5 24.7 65 5.2 W 15 19 8 10 1011.6 1011.5 0.0
28/02:00pm 32.4 35.8 24.7 64 5.4 WSW 15 19 8 10 1011.9 1011.8 0.0
28/01:30pm 32.4 35.8 24.7 64 5.4 WSW 15 17 8 9 1012.5 1012.4 0.0
28/01:00pm 32.4 36.2 24.7 64 5.4 W 13 15 7 8 1012.9 1012.8 0.0
28/12:30pm 32.0 35.4 24.6 65 5.2 WSW 15 17 8 9 1013.2 1013.1 0.0
28/12:00pm 31.6 35.3 24.5 66 5.0 WSW 13 17 7 9 1013.7 1013.6 0.0
28/11:30am 31.9 35.3 24.7 65 5.1 WSW 15 17 8 9 1014.0 1013.9 0.0
28/11:00am 31.7 35.1 24.6 66 5.0 WSW 15 17 8 9 1014.3 1014.2 0.0
28/10:30am 31.3 34.5 23.7 64 5.3 WSW 13 17 7 9 1014.4 1014.3 0.0
28/10:00am 31.1 33.8 23.5 64 5.3 WSW 15 17 8 9 1014.4 1014.3 0.0
28/09:30am 30.4 32.9 23.8 68 4.6 WSW 17 19 9 10 1014.3 1014.2 0.0
28/09:00am 29.9 32.3 24.3 72 3.9 WSW 19 20 10 11 1014.1 1014.0 0.0
28/08:30am 29.5 32.2 24.8 76 3.3 WSW 19 22 10 12 1013.8 1013.7 0.0
28/08:00am 28.8 31.3 24.4 77 3.1 WSW 19 24 10 13 1013.7 1013.6 0.0
28/07:30am 28.5 31.0 24.5 79 2.8 WSW 19 22 10 12 1013.5 1013.4 0.0
28/07:00am 28.6 31.0 24.6 79 2.8 WSW 20 24 11 13 1013.2 1013.1 0.0
28/06:30am 28.6 30.8 24.2 77 3.1 WSW 20 22 11 12 1013.0 1012.9 0.0
28/06:00am 28.7 31.1 24.3 77 3.1 WSW 19 22 10 12 1012.8 1012.7 0.0
28/05:30am 28.7 30.9 24.0 76 3.3 WSW 19 20 10 11 1012.9 1012.8 0.0
28/05:00am 28.6 31.0 24.2 77 3.1 WSW 19 24 10 13 1012.8 1012.7 0.0
28/04:30am 28.6 30.8 24.2 77 3.1 W 20 22 11 12 1012.6 1012.5 0.0
28/04:00am 28.7 31.4 24.7 79 2.8 WSW 19 24 10 13 1012.8 1012.7 0.0
28/03:30am 28.7 31.2 24.5 78 2.9 WSW 19 22 10 12 1012.8 1012.7 0.0
28/03:00am 28.8 31.3 24.4 77 3.1 WSW 19 24 10 13 1013.2 1013.1 0.0
28/02:30am 28.8 31.4 24.6 78 2.9 WSW 19 22 10 12 1013.4 1013.3 0.0
28/02:00am 28.7 30.7 24.0 76 3.3 WSW 20 24 11 13 1013.5 1013.4 0.0
28/01:30am 28.8 31.8 24.6 78 2.9 WSW 17 22 9 12 1013.5 1013.4 0.0
28/01:00am 28.7 30.7 24.0 76 3.3 WSW 20 22 11 12 1013.7 1013.6 0.0
28/12:30am 28.5 31.2 24.7 80 2.7 W 19 20 10 11 1013.7 1013.6 0.0
28/12:00am 28.6 31.2 24.6 79 2.8 WSW 19 20 10 11 1013.8 1013.7 0.0
 
Date/Time
CST
Temp
°C
App
Temp
°C
Dew
Point
Rel
Hum
%
Delta-T
°C
Wind Press
QNH
hPa
Press
MSL
hPa
Rain
since 9 am
mm
Dir
 
Spd
km/h
Gust
km/h
Spd
kts
Gust
kts
27/11:30pm 28.5 31.8 24.5 79 2.8 W 15 19 8 10 1013.9 1013.8 0.0
27/11:00pm 28.6 31.5 24.4 78 2.9 W 17 19 9 10 1013.9 1013.8 0.0
27/10:30pm 28.7 31.5 24.3 77 3.1 W 17 19 9 10 1013.9 1013.8 0.0
27/10:00pm 28.5 31.3 24.3 78 2.9 WNW 17 19 9 10 1013.6 1013.5 0.0
27/09:30pm 28.7 31.6 24.5 78 2.9 WNW 17 20 9 11 1013.3 1013.2 0.0
27/09:00pm 28.7 31.7 24.0 76 3.3 WNW 15 19 8 10 1013.1 1013.0 0.0
27/08:30pm 28.9 31.1 24.0 75 3.4 WNW 19 20 10 11 1012.6 1012.5 0.0
27/08:00pm 29.1 31.1 24.0 74 3.5 WNW 20 22 11 12 1012.4 1012.3 0.0
27/07:30pm 29.1 31.3 24.2 75 3.4 WNW 20 22 11 12 1012.2 1012.1 0.0
27/07:00pm 29.3 31.4 23.7 72 3.9 WNW 19 22 10 12 1011.9 1011.8 0.0
27/06:30pm 29.9 32.3 24.3 72 3.9 WNW 19 22 10 12 1011.7 1011.6 0.0
27/06:00pm 30.5 32.6 23.7 67 4.7 WNW 19 20 10 11 1011.5 1011.4 0.0
27/05:30pm 31.1 33.7 24.0 66 4.9 WNW 17 20 9 11 1011.3 1011.2 0.0
27/05:00pm 31.5 33.9 23.6 63 5.5 WNW 17 20 9 11 1011.4 1011.3 0.0
27/04:30pm 31.8 34.4 23.9 63 5.5 WNW 17 19 9 10 1011.4 1011.3 0.0
27/04:00pm 32.0 35.1 24.1 63 5.5 NW 15 17 8 9 1011.5 1011.4 0.0
27/03:30pm 32.0 35.7 24.6 65 5.2 WNW 13 17 7 9 1011.7 1011.6 0.0
27/03:00pm 31.6 34.8 23.7 63 5.5 WNW 13 15 7 8 1011.9 1011.8 0.0
27/02:30pm 32.4 35.1 23.4 59 6.2 W 15 19 8 10 1012.3 1012.2 0.0
27/02:00pm 31.6 34.3 22.9 60 6.0 W 13 17 7 9 1012.6 1012.5 0.0
27/01:30pm 32.0 34.3 22.7 58 6.4 W 15 19 8 10 1013.0 1012.9 0.0
27/01:00pm 32.6 34.5 22.7 56 6.8 WSW 17 19 9 10 1013.5 1013.4 0.0
27/12:30pm 32.4 34.7 23.4 59 6.2 WSW 17 20 9 11 1013.9 1013.8 0.0
27/12:00pm 32.6 34.9 23.5 58 6.3 SW 17 20 9 11 1014.5 1014.4 0.0
27/11:30am 31.9 34.2 23.4 60 5.9 SW 17 20 9 11 1014.8 1014.7 0.0
27/11:00am 32.0 33.6 23.3 60 6.0 SW 20 24 11 13 1015.1 1015.0 0.0
27/10:30am 31.4 33.9 24.5 67 4.8 SSW 19 22 10 12 1015.3 1015.2 0.0
27/10:00am 31.0 33.8 24.9 70 4.3 SSW 19 22 10 12 1015.3 1015.2 0.0
27/09:30am 30.4 32.9 24.5 70 4.1 SSW 19 22 10 12 1015.1 1015.0 0.0
27/09:00am 29.9 32.2 24.1 71 4.0 SW 19 22 10 12 1015.0 1014.9 0.0
27/08:30am 29.5 31.6 23.7 71 4.0 SW 19 22 10 12 1014.7 1014.6 0.0
27/08:00am 28.9 31.5 24.0 75 3.4 SW 17 20 9 11 1014.4 1014.3 0.0
27/07:30am 28.5 31.2 23.4 74 3.5 SW 15 17 8 9 1014.2 1014.1 0.0
27/07:00am 28.3 30.5 23.2 74 3.5 SW 17 19 9 10 1013.9 1013.8 0.0
27/06:30am 28.3 30.7 23.7 76 3.2 SSW 17 20 9 11 1013.8 1013.7 0.0
27/06:00am 28.3 31.0 23.4 75 3.4 SSW 15 19 8 10 1013.4 1013.3 0.0
27/05:30am 28.5 31.2 24.1 77 3.0 SSW 17 20 9 11 1013.1 1013.0 0.0
27/05:00am 28.6 30.4 23.3 73 3.6 SSW 19 20 10 11 1012.9 1012.8 0.0
27/04:30am 28.7 30.8 23.1 71 3.8 SW 17 20 9 11 1013.0 1012.9 0.0
27/04:00am 28.7 30.4 23.1 71 3.8 SW 19 24 10 13 1013.3 1013.2 0.0
27/03:30am 28.8 30.8 23.9 75 3.4 WSW 20 22 11 12 1013.5 1013.4 0.0
27/03:00am 28.7 30.6 23.8 75 3.4 SW 20 24 11 13 1013.8 1013.7 0.0
27/02:30am 28.7 30.7 23.6 74 3.5 WSW 19 22 10 12 1013.9 1013.8 0.0
27/02:00am 28.7 30.8 23.1 71 3.8 WSW 17 19 9 10 1014.1 1014.0 0.0
27/01:30am 28.7 31.4 23.4 73 3.6 WSW 15 17 8 9 1014.1 1014.0 0.0
27/01:00am 28.5 31.8 23.2 73 3.6 WSW 11 13 6 7 1013.9 1013.8 0.0
27/12:30am 28.4 31.9 23.5 75 3.4 WSW 11 13 6 7 1013.9 1013.8 0.0

Other Formats:

Comma delimited format used in spreadsheet applications
http://www.bom.gov.au/fwo/IDD60801/IDD60801.94102.axf

JavaScript Object Notation format (JSON) in row-major order
http://www.bom.gov.au/fwo/IDD60801/IDD60801.94102.json